Time;durP1;ratioP1;P1;durP2;ratioP2;P2;SDS_P1;SDS_P2;PMS_P1;PMS_P2;Temp;Humidity;BMP_temperature;BMP_pressure;BME280_temperature;BME280_humidity;BME280_pressure;Samples;Min_cycle;Max_cycle;Signal;HPM_P1;HPM_P2
2023/04/14 00:02:02;;;;;;;1.20;0.90;;;;;;;9.25;100.00;98972.73;105872;1258;66427;-51
2023/04/14 00:04:32;;;;;;;1.80;1.10;;;;;;;9.21;100.00;98972.23;105455;1255;72663;-50
2023/04/14 00:07:00;;;;;;;1.70;1.00;;;;;;;9.19;100.00;98974.52;105674;1257;62153;-51
2023/04/14 00:09:28;;;;;;;1.70;0.90;;;;;;;9.16;100.00;98977.71;105892;1254;60565;-52
2023/04/14 00:11:57;;;;;;;2.30;1.10;;;;;;;9.14;100.00;98981.58;105341;1258;72734;-51
2023/04/14 00:14:24;;;;;;;7.30;1.60;;;;;;;9.12;100.00;98978.98;105262;1254;67202;-52
2023/04/14 00:16:53;;;;;;;3.40;1.20;;;;;;;9.10;100.00;98982.35;106394;1254;72804;-53
2023/04/14 00:19:21;;;;;;;2.20;1.40;;;;;;;9.06;100.00;98981.13;105308;1254;63736;-51
2023/04/14 00:21:49;;;;;;;2.30;1.40;;;;;;;9.05;100.00;98984.56;105313;1254;61014;-51
2023/04/14 00:24:19;;;;;;;1.60;1.40;;;;;;;9.04;100.00;98985.68;105228;1257;74073;-53
2023/04/14 00:26:47;;;;;;;1.70;1.10;;;;;;;9.03;100.00;98987.52;109009;1254;67250;-53
2023/04/14 00:29:14;;;;;;;3.00;1.10;;;;;;;9.03;100.00;98986.96;109056;1255;71494;-51
2023/04/14 00:31:42;;;;;;;2.50;1.20;;;;;;;9.06;100.00;98984.16;109059;1254;60176;-54
2023/04/14 00:34:11;;;;;;;1.60;1.00;;;;;;;9.09;100.00;98982.92;109051;1254;62472;-53
2023/04/14 00:36:39;;;;;;;2.30;1.20;;;;;;;9.14;100.00;98978.73;107700;1254;72439;-55
2023/04/14 00:39:07;;;;;;;2.90;0.90;;;;;;;9.17;100.00;98978.91;105219;1257;65671;-50
2023/04/14 00:41:35;;;;;;;1.00;0.90;;;;;;;9.18;100.00;98975.11;105228;1254;74763;-52
2023/04/14 00:44:03;;;;;;;1.20;0.90;;;;;;;9.19;100.00;98976.30;105137;1259;61898;-52
2023/04/14 00:46:31;;;;;;;1.40;1.00;;;;;;;9.18;100.00;98977.23;109059;1254;59444;-51
2023/04/14 00:49:00;;;;;;;1.10;1.00;;;;;;;9.15;100.00;98977.92;109089;1253;75033;-52
2023/04/14 00:51:28;;;;;;;1.70;1.10;;;;;;;9.12;100.00;98975.79;108956;1254;67472;-50
2023/04/14 00:56:30;;;;;;;4.60;0.90;;;;;;;9.08;100.00;98985.64;102445;1304;601579;-52
2023/04/14 00:59:01;;;;;;;1.50;0.80;;;;;;;9.07;100.00;99003.95;104708;1269;61238;-50
2023/04/14 01:01:29;;;;;;;2.60;1.10;;;;;;;9.03;100.00;99002.23;108305;1266;59289;-53
2023/04/14 01:03:58;;;;;;;1.40;0.90;;;;;;;9.00;100.00;99000.05;108296;1270;71440;-54
2023/04/14 01:06:28;;;;;;;3.10;0.80;;;;;;;8.97;100.00;99001.45;108228;1268;68112;-50
2023/04/14 01:08:56;;;;;;;0.90;0.90;;;;;;;8.96;100.00;98995.98;108301;1270;73031;-51
2023/04/14 01:12:06;;;;;;;1.40;1.00;;;;;;;8.96;100.00;99000.81;108332;1267;61348;-53
2023/04/14 01:14:41;;;;;;;1.40;1.00;;;;;;;8.91;100.00;99000.02;107532;1267;58775;-49
2023/04/14 01:17:20;;;;;;;1.30;0.90;;;;;;;8.89;100.00;98995.10;107935;1264;71581;-51
2023/04/14 01:20:18;;;;;;;5.10;1.20;;;;;;;8.89;100.00;98998.13;104831;1269;66178;-54
2023/04/14 01:22:48;;;;;;;2.80;0.90;;;;;;;8.89;100.00;99002.60;104433;1264;71829;-52
2023/04/14 01:25:40;;;;;;;2.00;1.00;;;;;;;8.90;100.00;99004.34;104890;1269;61563;-54
2023/04/14 01:28:17;;;;;;;2.80;1.10;;;;;;;8.90;100.00;99007.06;104611;1269;60210;-51
2023/04/14 01:30:56;;;;;;;1.80;1.00;;;;;;;8.90;100.00;99007.21;104897;1269;72467;-53
2023/04/14 01:33:25;;;;;;;1.10;0.80;;;;;;;8.90;100.00;99008.10;104778;1270;68451;-53
2023/04/14 01:35:55;;;;;;;3.70;1.30;;;;;;;8.88;100.00;99003.19;104576;1280;73163;-53
2023/04/14 01:38:26;;;;;;;2.10;1.30;;;;;;;8.90;100.00;99001.49;105172;1269;62350;-54
2023/04/14 01:40:56;;;;;;;2.00;0.80;;;;;;;8.92;100.00;99000.84;104984;1269;59714;-51
2023/04/14 01:43:27;;;;;;;1.10;0.70;;;;;;;8.92;100.00;98998.88;104823;1269;73233;-51
2023/04/14 01:45:57;;;;;;;2.80;0.80;;;;;;;8.94;100.00;98998.38;104712;1270;67183;-52
2023/04/14 01:48:25;;;;;;;2.90;1.50;;;;;;;8.94;100.00;99006.10;106307;1258;71096;-53
2023/04/14 01:50:53;;;;;;;2.10;0.70;;;;;;;8.90;100.00;99005.98;105325;1261;60932;-53
2023/04/14 01:53:23;;;;;;;3.50;0.90;;;;;;;8.86;100.00;99006.86;105489;1257;60945;-51
2023/04/14 01:55:51;;;;;;;3.50;0.80;;;;;;;8.82;100.00;99008.36;105473;1258;73272;-51
2023/04/14 01:58:21;;;;;;;0.90;0.80;;;;;;;8.78;100.00;99011.76;105403;1260;66858;-54
2023/04/14 02:00:50;;;;;;;1.10;0.90;;;;;;;8.75;100.00;99013.91;105667;1260;72189;-50
2023/04/14 02:03:19;;;;;;;4.20;1.00;;;;;;;8.73;100.00;99011.86;105741;1266;62743;-50
2023/04/14 02:05:50;;;;;;;3.30;1.00;;;;;;;8.73;100.00;99015.10;105413;1258;61180;-50
2023/04/14 02:08:19;;;;;;;2.70;0.90;;;;;;;8.71;100.00;99018.42;105422;1260;74542;-51
2023/04/14 02:10:48;;;;;;;2.00;0.90;;;;;;;8.67;100.00;99016.30;105961;1257;68016;-48
2023/04/14 02:13:17;;;;;;;1.50;1.20;;;;;;;8.65;100.00;99019.83;105766;1258;72927;-51
2023/04/14 02:15:47;;;;;;;1.70;1.10;;;;;;;8.63;100.00;99018.66;105466;1263;62055;-54
2023/04/14 02:18:14;;;;;;;1.90;1.10;;;;;;;8.60;100.00;99016.67;105195;1257;60644;-50
2023/04/14 02:20:46;;;;;;;2.80;1.10;;;;;;;8.57;100.00;99018.82;105484;1258;73009;-52
2023/04/14 02:23:27;;;;;;;1.90;1.10;;;;;;;8.55;100.00;99022.83;105371;1257;65644;-53
2023/04/14 02:25:59;;;;;;;2.10;1.10;;;;;;;8.55;100.00;99026.80;105245;1260;71612;-49
2023/04/14 02:28:32;;;;;;;3.90;1.30;;;;;;;8.53;100.00;99030.64;105693;1257;60674;-51
2023/04/14 02:31:04;;;;;;;2.50;1.20;;;;;;;8.50;100.00;99031.14;105621;1259;59570;-47
2023/04/14 02:33:34;;;;;;;2.00;1.10;;;;;;;8.50;100.00;99034.37;105461;1259;73292;-52
2023/04/14 02:36:12;;;;;;;2.00;1.00;;;;;;;8.50;100.00;99037.21;105569;1260;68200;-51
2023/04/14 02:38:51;;;;;;;1.50;1.00;;;;;;;8.52;100.00;99043.20;105354;1257;70314;-50
2023/04/14 02:41:22;;;;;;;3.40;1.30;;;;;;;8.53;100.00;99046.71;105459;1261;62177;-53
2023/04/14 02:44:09;;;;;;;2.60;1.30;;;;;;;8.52;100.00;99049.80;105666;1260;59608;-49
2023/04/14 02:46:41;;;;;;;4.10;1.20;;;;;;;8.53;100.00;99051.90;105291;1260;72012;-48
2023/04/14 02:49:10;;;;;;;2.10;1.20;;;;;;;8.55;100.00;99054.33;105320;1258;66683;-51
2023/04/14 02:51:39;;;;;;;1.20;1.00;;;;;;;8.57;100.00;99052.23;105268;1256;72185;-51
2023/04/14 02:54:08;;;;;;;1.30;1.20;;;;;;;8.60;100.00;99058.53;105936;1262;62287;-49
2023/04/14 02:56:43;;;;;;;2.40;2.20;;;;;;;8.60;100.00;99060.98;105304;1258;60232;-48
2023/04/14 02:59:11;;;;;;;6.80;2.80;;;;;;;8.59;100.00;99059.64;106086;1257;73389;-51
2023/04/14 03:01:49;;;;;;;3.70;2.30;;;;;;;8.57;100.00;99061.01;105346;1260;67256;-54
2023/04/14 03:04:17;;;;;;;4.30;2.90;;;;;;;8.57;100.00;99062.59;105042;1256;73185;-49
2023/04/14 03:06:46;;;;;;;5.00;2.80;;;;;;;8.58;100.00;99065.07;106115;1259;60937;-47
2023/04/14 03:09:14;;;;;;;3.10;2.00;;;;;;;8.60;100.00;99065.30;105243;1260;59544;-52
2023/04/14 03:11:43;;;;;;;2.60;1.90;;;;;;;8.59;100.00;99063.55;105135;1258;70866;-51
2023/04/14 03:14:12;;;;;;;2.30;1.60;;;;;;;8.58;100.00;99063.81;107392;1260;66635;-49
2023/04/14 03:16:41;;;;;;;1.40;1.30;;;;;;;8.58;100.00;99064.34;105313;1257;72225;-49
2023/04/14 03:19:09;;;;;;;3.00;1.20;;;;;;;8.55;100.00;99060.04;108211;1256;60988;-53
2023/04/14 03:21:41;;;;;;;1.30;1.10;;;;;;;8.52;100.00;99064.83;105508;1258;60591;-50
2023/04/14 03:24:11;;;;;;;4.20;1.60;;;;;;;8.48;100.00;99065.02;105320;1260;74597;-52
2023/04/14 03:26:40;;;;;;;1.90;1.30;;;;;;;8.49;100.00;99064.09;106481;1257;67957;-52
2023/04/14 03:29:09;;;;;;;1.40;1.20;;;;;;;8.49;100.00;99064.11;107739;1253;72576;-50
2023/04/14 03:31:37;;;;;;;2.90;1.50;;;;;;;8.50;100.00;99064.03;105551;1256;61521;-50
2023/04/14 03:34:06;;;;;;;2.70;1.30;;;;;;;8.50;100.00;99065.48;107689;1252;60497;-52
2023/04/14 03:36:36;;;;;;;4.90;1.10;;;;;;;8.48;100.00;99064.88;106590;1253;74261;-54
2023/04/14 03:39:05;;;;;;;2.20;1.50;;;;;;;8.45;100.00;99065.73;105943;1253;67347;-54
2023/04/14 03:41:37;;;;;;;3.60;1.60;;;;;;;8.40;100.00;99067.95;108921;1254;71941;-54
2023/04/14 03:44:05;;;;;;;3.00;1.60;;;;;;;8.37;100.00;99068.80;107927;1254;62748;-54
2023/04/14 03:46:35;;;;;;;5.10;1.40;;;;;;;8.37;100.00;99071.67;108951;1254;57867;-52
2023/04/14 03:49:06;;;;;;;2.50;1.30;;;;;;;8.35;100.00;99074.42;108869;1254;73091;-52
2023/04/14 03:51:35;;;;;;;1.70;1.50;;;;;;;8.34;100.00;99082.02;108924;1253;67273;-51
2023/04/14 03:54:03;;;;;;;2.00;1.20;;;;;;;8.36;100.00;99084.77;108976;1253;74016;-50
2023/04/14 03:56:40;;;;;;;1.50;1.30;;;;;;;8.39;100.00;99083.56;108826;1258;61219;-53
2023/04/14 03:59:11;;;;;;;1.40;1.00;;;;;;;8.41;100.00;99085.11;108874;1254;59825;-50
2023/04/14 04:01:40;;;;;;;3.30;1.50;;;;;;;8.42;100.00;99090.06;108748;1253;72000;-53
2023/04/14 04:04:08;;;;;;;2.90;1.60;;;;;;;8.43;100.00;99093.19;109166;1252;66411;-51
2023/04/14 04:06:36;;;;;;;3.50;1.50;;;;;;;8.45;100.00;99090.75;108779;1252;70516;-51
2023/04/14 04:09:04;;;;;;;3.40;1.30;;;;;;;8.50;100.00;99095.71;109060;1254;62842;-50
2023/04/14 04:11:32;;;;;;;1.50;1.40;;;;;;;8.53;100.00;99094.45;108960;1253;59881;-53
2023/04/14 04:14:03;;;;;;;2.60;1.50;;;;;;;8.58;100.00;99097.62;109189;1253;72718;-53
2023/04/14 04:16:34;;;;;;;1.70;1.60;;;;;;;8.61;100.00;99098.89;109008;1254;65467;-52
2023/04/14 04:19:05;;;;;;;1.40;1.30;;;;;;;8.63;100.00;99100.40;108929;1254;72929;-51
2023/04/14 04:21:35;;;;;;;1.90;1.50;;;;;;;8.66;100.00;99101.15;108786;1253;62847;-51
2023/04/14 04:24:03;;;;;;;1.80;1.60;;;;;;;8.68;100.00;99104.40;108929;1254;62121;-52
2023/04/14 04:26:31;;;;;;;2.70;1.60;;;;;;;8.67;100.00;99107.18;108978;1254;71200;-49
2023/04/14 04:29:03;;;;;;;2.20;1.80;;;;;;;8.63;100.00;99109.86;107794;1254;65918;-50
2023/04/14 04:31:32;;;;;;;2.60;2.00;;;;;;;8.64;100.00;99114.13;108661;1254;72290;-50
2023/04/14 04:34:02;;;;;;;6.10;2.00;;;;;;;8.66;100.00;99118.48;107195;1256;62575;-50
2023/04/14 04:36:37;;;;;;;1.90;1.60;;;;;;;8.67;100.00;99117.52;108819;1253;58399;-51
2023/04/14 04:39:05;;;;;;;4.00;1.90;;;;;;;8.69;100.00;99116.50;108656;1253;71179;-52
2023/04/14 04:41:36;;;;;;;3.00;2.00;;;;;;;8.71;100.00;99121.41;108042;1254;65317;-53
2023/04/14 04:44:05;;;;;;;2.80;2.20;;;;;;;8.76;100.00;99127.11;105185;1257;71904;-52
2023/04/14 04:46:54;;;;;;;2.80;2.20;;;;;;;8.77;100.00;99128.10;108716;1253;62320;-50
2023/04/14 04:49:25;;;;;;;3.40;1.90;;;;;;;8.78;100.00;99133.05;108638;1254;61025;-53
2023/04/14 04:51:55;;;;;;;2.40;2.00;;;;;;;8.79;100.00;99139.46;108019;1252;72416;-51
2023/04/14 04:54:23;;;;;;;3.80;2.30;;;;;;;8.77;100.00;99141.38;104905;1253;67335;-51
2023/04/14 04:56:51;;;;;;;3.80;2.00;;;;;;;8.74;100.00;99149.41;104866;1254;73514;-49
2023/04/14 04:59:19;;;;;;;6.70;2.50;;;;;;;8.72;100.00;99149.30;106294;1254;62074;-52
2023/04/14 05:01:49;;;;;;;2.70;2.40;;;;;;;8.73;100.00;99145.69;105625;1254;59705;-48
2023/04/14 05:04:17;;;;;;;2.50;2.30;;;;;;;8.76;100.00;99151.42;106992;1253;70700;-52
2023/04/14 05:06:46;;;;;;;3.70;2.40;;;;;;;8.79;100.00;99157.02;105443;1253;68855;-53
2023/04/14 05:09:19;;;;;;;2.40;1.80;;;;;;;8.78;100.00;99157.40;105350;1254;72071;-49
2023/04/14 05:11:47;;;;;;;3.00;2.30;;;;;;;8.76;100.00;99158.59;105481;1254;60698;-47
2023/04/14 05:14:15;;;;;;;3.00;2.50;;;;;;;8.75;100.00;99163.33;105548;1253;61461;-53
2023/04/14 05:16:43;;;;;;;1.80;1.70;;;;;;;8.73;100.00;99161.58;105486;1253;73300;-52
2023/04/14 05:19:12;;;;;;;2.90;2.50;;;;;;;8.69;100.00;99161.25;105847;1254;67373;-50
2023/04/14 05:21:41;;;;;;;3.40;3.20;;;;;;;8.68;100.00;99163.96;105619;1254;72159;-53
2023/04/14 05:24:09;;;;;;;2.90;2.40;;;;;;;8.68;100.00;99168.83;104873;1254;60564;-52
2023/04/14 05:26:38;;;;;;;3.00;2.70;;;;;;;8.63;100.00;99168.88;105025;1254;60444;-50
2023/04/14 05:29:10;;;;;;;2.60;2.40;;;;;;;8.62;100.00;99173.61;105203;1254;74473;-52
2023/04/14 05:31:38;;;;;;;4.80;2.70;;;;;;;8.63;100.00;99172.46;105513;1253;65568;-53
2023/04/14 05:34:06;;;;;;;2.60;2.20;;;;;;;8.65;100.00;99177.55;105588;1254;72422;-51
2023/04/14 05:36:35;;;;;;;3.40;3.10;;;;;;;8.68;100.00;99178.64;107441;1256;62367;-51
2023/04/14 05:39:03;;;;;;;2.40;2.20;;;;;;;8.71;100.00;99181.02;105226;1254;60533;-51
2023/04/14 05:41:32;;;;;;;3.80;3.30;;;;;;;8.70;100.00;99181.76;104998;1253;74072;-53
2023/04/14 05:44:03;;;;;;;3.50;3.20;;;;;;;8.72;100.00;99182.76;104810;1254;68268;-52
2023/04/14 05:46:31;;;;;;;4.70;3.80;;;;;;;8.72;100.00;99182.02;105033;1254;71929;-54
2023/04/14 05:49:00;;;;;;;3.70;3.20;;;;;;;8.73;100.00;99182.86;105476;1254;61970;-54
2023/04/14 05:51:30;;;;;;;3.90;3.50;;;;;;;8.73;100.00;99187.91;105681;1253;61543;-53
2023/04/14 05:53:59;;;;;;;8.10;3.80;;;;;;;8.64;100.00;99185.64;105125;1256;73606;-53
2023/04/14 05:56:28;;;;;;;3.30;2.90;;;;;;;8.59;100.00;99186.44;106123;1256;66624;-53
2023/04/14 05:58:56;;;;;;;4.30;4.00;;;;;;;8.60;100.00;99188.32;104787;1260;72496;-52
2023/04/14 06:01:24;;;;;;;6.50;4.50;;;;;;;8.61;100.00;99190.30;104958;1254;61483;-49
2023/04/14 06:03:53;;;;;;;6.00;4.50;;;;;;;8.58;100.00;99192.38;104943;1257;60511;-53
2023/04/14 06:06:22;;;;;;;4.50;3.60;;;;;;;8.62;100.00;99195.41;104757;1254;72785;-51
2023/04/14 06:08:52;;;;;;;4.60;4.20;;;;;;;8.66;100.00;99195.39;104847;1254;66724;-52
2023/04/14 06:11:22;;;;;;;4.60;4.20;;;;;;;8.68;100.00;99198.52;105170;1254;73268;-51
2023/04/14 06:13:49;;;;;;;4.90;4.40;;;;;;;8.68;100.00;99202.10;105037;1256;60931;-54
2023/04/14 06:16:17;;;;;;;4.70;4.40;;;;;;;8.68;100.00;99199.60;107130;1253;60270;-51
2023/04/14 06:18:49;;;;;;;4.10;3.70;;;;;;;8.64;100.00;99199.95;105356;1254;72985;-53
2023/04/14 06:21:17;;;;;;;5.50;5.00;;;;;;;8.61;100.00;99205.29;104727;1254;65495;-54
2023/04/14 06:23:45;;;;;;;5.40;4.10;;;;;;;8.59;100.00;99204.48;104699;1258;73239;-54
2023/04/14 06:26:15;;;;;;;4.50;3.90;;;;;;;8.62;100.00;99208.48;104900;1256;61068;-54
2023/04/14 06:28:44;;;;;;;4.80;4.40;;;;;;;8.65;100.00;99217.08;104553;1257;59560;-51
2023/04/14 06:31:13;;;;;;;4.60;3.90;;;;;;;8.66;100.00;99214.91;105769;1254;74256;-54
2023/04/14 06:33:41;;;;;;;4.10;3.80;;;;;;;8.69;100.00;99221.70;105118;1254;67186;-52
2023/04/14 06:36:09;;;;;;;9.20;4.50;;;;;;;8.76;100.00;99221.94;104814;1254;72036;-51
2023/04/14 06:38:37;;;;;;;6.40;4.70;;;;;;;8.81;100.00;99220.96;104407;1256;61152;-56
2023/04/14 06:41:05;;;;;;;4.00;3.30;;;;;;;8.82;100.00;99223.08;104639;1254;61037;-52
2023/04/14 06:43:35;;;;;;;9.30;5.10;;;;;;;8.81;100.00;99223.29;108983;1253;74171;-53
2023/04/14 06:46:03;;;;;;;5.00;4.60;;;;;;;8.82;100.00;99227.55;109034;1253;67411;-53
2023/04/14 06:48:31;;;;;;;5.90;4.50;;;;;;;8.82;100.00;99230.94;109013;1253;71090;-56
2023/04/14 06:50:59;;;;;;;3.80;3.50;;;;;;;8.83;100.00;99231.60;108855;1253;60318;-55
2023/04/14 06:53:28;;;;;;;5.70;4.60;;;;;;;8.81;100.00;99228.98;108921;1253;60083;-54
2023/04/14 06:55:59;;;;;;;4.80;4.50;;;;;;;8.81;100.00;99228.66;109081;1253;72980;-55
2023/04/14 06:58:29;;;;;;;4.60;4.30;;;;;;;8.78;100.00;99228.61;108987;1253;67359;-53
2023/04/14 07:00:59;;;;;;;3.80;3.50;;;;;;;8.77;100.00;99232.41;109003;1253;70679;-54
2023/04/14 07:03:29;;;;;;;4.90;4.20;;;;;;;8.79;100.00;99235.02;108983;1254;60792;-50
2023/04/14 07:06:04;;;;;;;5.10;4.10;;;;;;;8.82;100.00;99239.70;109103;1253;61523;-53
2023/04/14 07:08:33;;;;;;;5.40;4.30;;;;;;;8.86;100.00;99241.64;109032;1254;73089;-50
2023/04/14 07:11:02;;;;;;;7.40;5.90;;;;;;;8.87;100.00;99241.38;109094;1253;66206;-49
2023/04/14 07:13:30;;;;;;;5.50;5.00;;;;;;;8.86;100.00;99242.52;107790;1254;71162;-54
2023/04/14 07:15:59;;;;;;;6.20;4.30;;;;;;;8.87;100.00;99247.66;109087;1253;61681;-51
2023/04/14 07:18:29;;;;;;;4.10;3.70;;;;;;;8.89;100.00;99249.18;109209;1253;61185;-55
2023/04/14 07:20:58;;;;;;;4.90;4.50;;;;;;;8.89;100.00;99254.38;105157;1253;74242;-54
2023/04/14 07:23:26;;;;;;;5.50;3.70;;;;;;;8.90;100.00;99257.89;109067;1252;67490;-50
2023/04/14 07:25:56;;;;;;;7.20;5.70;;;;;;;8.91;100.00;99262.14;109065;1253;73665;-51
2023/04/14 07:28:25;;;;;;;5.70;5.20;;;;;;;8.89;100.00;99263.84;109130;1253;61136;-54
2023/04/14 07:30:54;;;;;;;4.30;3.90;;;;;;;8.83;100.00;99261.45;109138;1252;61510;-54
2023/04/14 07:33:23;;;;;;;4.10;3.70;;;;;;;8.81;100.00;99261.39;108818;1252;73852;-52
2023/04/14 07:36:00;;;;;;;4.80;4.40;;;;;;;8.80;100.00;99266.63;109014;1253;66831;-55
2023/04/14 07:38:32;;;;;;;4.90;4.50;;;;;;;8.79;100.00;99270.58;105573;1253;73401;-48
2023/04/14 07:41:02;;;;;;;6.00;5.10;;;;;;;8.80;100.00;99264.83;105402;1254;61690;-51
2023/04/14 07:43:34;;;;;;;5.70;4.90;;;;;;;8.82;100.00;99268.88;105570;1257;61108;-48
2023/04/14 07:46:04;;;;;;;5.10;4.60;;;;;;;8.87;100.00;99270.75;106801;1254;71754;-47
2023/04/14 07:48:33;;;;;;;5.30;4.40;;;;;;;8.91;100.00;99271.96;105349;1254;66861;-48
2023/04/14 07:51:08;;;;;;;4.90;4.50;;;;;;;8.98;100.00;99273.27;105151;1254;73523;-54
2023/04/14 07:53:41;;;;;;;6.10;4.70;;;;;;;9.04;100.00;99274.38;105530;1254;61869;-50
2023/04/14 07:56:10;;;;;;;5.60;5.00;;;;;;;9.04;100.00;99277.03;106528;1254;60457;-52
2023/04/14 07:58:39;;;;;;;6.30;5.50;;;;;;;9.05;100.00;99275.02;105491;1257;73054;-54
2023/04/14 08:01:07;;;;;;;8.10;5.50;;;;;;;9.05;100.00;99278.60;105849;1253;67405;-52
2023/04/14 08:03:38;;;;;;;6.90;6.30;;;;;;;9.09;100.00;99279.51;105552;1254;71709;-51
2023/04/14 08:06:10;;;;;;;6.70;5.70;;;;;;;9.11;100.00;99283.52;105555;1256;63628;-50
2023/04/14 08:08:39;;;;;;;6.30;5.40;;;;;;;9.09;100.00;99282.88;105557;1255;60362;-50
2023/04/14 08:11:07;;;;;;;5.50;5.10;;;;;;;9.11;100.00;99284.58;106306;1257;72979;-49
2023/04/14 08:13:35;;;;;;;6.00;5.40;;;;;;;9.13;100.00;99283.05;106197;1257;67172;-52
2023/04/14 08:16:06;;;;;;;6.20;5.60;;;;;;;9.14;100.00;99290.00;105501;1256;76152;-49
2023/04/14 08:18:35;;;;;;;6.80;6.10;;;;;;;9.13;100.00;99288.75;105713;1256;61998;-52
2023/04/14 08:21:04;;;;;;;9.40;6.00;;;;;;;9.16;100.00;99285.61;105681;1254;60502;-51
2023/04/14 08:23:33;;;;;;;6.60;6.00;;;;;;;9.18;100.00;99283.70;106385;1254;74275;-51
2023/04/14 08:26:02;;;;;;;7.10;6.00;;;;;;;9.20;100.00;99281.29;105845;1254;67745;-51
2023/04/14 08:28:30;;;;;;;7.40;6.80;;;;;;;9.19;100.00;99276.13;105999;1254;72266;-52
2023/04/14 08:30:58;;;;;;;6.50;5.50;;;;;;;9.22;100.00;99273.11;105579;1256;61588;-47
2023/04/14 08:33:29;;;;;;;6.80;5.90;;;;;;;9.24;100.00;99269.26;105498;1254;61346;-54
2023/04/14 08:35:57;;;;;;;7.70;7.00;;;;;;;9.24;100.00;99265.52;105643;1257;74007;-54
2023/04/14 08:38:29;;;;;;;7.10;6.40;;;;;;;9.22;100.00;99265.21;105535;1254;66791;-48
2023/04/14 08:40:57;;;;;;;7.90;6.70;;;;;;;9.24;100.00;99260.84;106500;1254;71714;-53
2023/04/14 08:43:25;;;;;;;5.80;5.30;;;;;;;9.25;100.00;99266.36;105474;1254;61555;-54
2023/04/14 08:45:54;;;;;;;6.80;6.20;;;;;;;9.25;100.00;99269.55;105643;1254;60409;-49
2023/04/14 08:48:22;;;;;;;6.50;6.00;;;;;;;9.24;100.00;99271.92;105733;1256;73353;-49
2023/04/14 08:51:00;;;;;;;8.30;7.60;;;;;;;9.26;100.00;99275.09;105590;1254;66932;-50
2023/04/14 08:53:30;;;;;;;7.50;6.60;;;;;;;9.31;100.00;99278.73;107460;1253;72543;-51
2023/04/14 08:56:01;;;;;;;9.80;6.80;;;;;;;9.37;100.00;99283.64;105433;1256;62939;-47
2023/04/14 08:58:30;;;;;;;8.10;6.90;;;;;;;9.42;100.00;99286.59;105846;1259;60883;-53
2023/04/14 09:01:00;;;;;;;11.80;7.20;;;;;;;9.49;100.00;99289.45;107056;1254;72021;-47
2023/04/14 09:03:30;;;;;;;7.10;6.40;;;;;;;9.55;100.00;99289.52;106042;1254;67720;-50
2023/04/14 09:05:58;;;;;;;7.20;5.60;;;;;;;9.59;100.00;99291.98;104898;1259;72959;-48
2023/04/14 09:08:34;;;;;;;7.20;6.50;;;;;;;9.66;100.00;99297.55;105070;1254;60517;-50
2023/04/14 09:11:02;;;;;;;9.30;7.80;;;;;;;9.71;100.00;99303.36;105565;1256;61970;-54
2023/04/14 09:13:31;;;;;;;7.30;6.60;;;;;;;9.72;100.00;99303.85;107655;1254;73910;-54
2023/04/14 09:16:00;;;;;;;6.60;6.20;;;;;;;9.72;100.00;99303.31;106094;1254;68389;-50
2023/04/14 09:18:31;;;;;;;6.70;6.10;;;;;;;9.70;100.00;99305.39;105577;1254;71700;-49
2023/04/14 09:21:03;;;;;;;9.20;7.80;;;;;;;9.67;100.00;99305.73;105389;1257;62263;-51
2023/04/14 09:23:51;;;;;;;8.20;7.40;;;;;;;9.60;100.00;99302.70;105733;1256;60521;-50
2023/04/14 09:26:19;;;;;;;9.60;7.90;;;;;;;9.56;100.00;99300.55;105686;1257;73842;-53
2023/04/14 09:28:47;;;;;;;7.10;6.40;;;;;;;9.54;100.00;99303.52;105256;1257;67427;-52
2023/04/14 09:31:16;;;;;;;10.40;9.20;;;;;;;9.54;100.00;99304.27;105187;1256;70532;-54
2023/04/14 09:33:47;;;;;;;10.20;8.20;;;;;;;9.56;100.00;99303.61;105419;1258;61151;-53
2023/04/14 09:36:19;;;;;;;8.80;7.90;;;;;;;9.59;100.00;99307.02;105241;1257;61557;-54
2023/04/14 09:38:48;;;;;;;10.20;7.60;;;;;;;9.64;100.00;99309.84;105692;1256;73315;-54
2023/04/14 09:41:18;;;;;;;8.60;7.10;;;;;;;9.67;100.00;99313.64;107175;1254;67396;-52
2023/04/14 09:43:47;;;;;;;9.10;7.50;;;;;;;9.69;100.00;99316.02;107062;1254;72939;-54
2023/04/14 09:46:16;;;;;;;6.90;6.10;;;;;;;9.73;100.00;99311.30;105161;1258;62147;-53
2023/04/14 09:48:51;;;;;;;6.90;6.40;;;;;;;9.81;100.00;99315.89;107844;1256;60552;-53
2023/04/14 09:51:23;;;;;;;6.60;6.10;;;;;;;9.91;100.00;99317.91;108894;1254;72868;-54
2023/04/14 09:53:51;;;;;;;5.20;4.90;;;;;;;9.99;100.00;99324.33;108881;1254;66425;-53
2023/04/14 09:56:27;;;;;;;6.00;5.50;;;;;;;10.07;100.00;99325.64;108846;1254;73547;-54
2023/04/14 09:58:59;;;;;;;5.90;5.40;;;;;;;10.17;100.00;99333.02;109043;1254;59852;-53
2023/04/14 10:01:30;;;;;;;4.90;4.40;;;;;;;10.20;100.00;99332.52;109020;1254;59415;-54
2023/04/14 10:04:00;;;;;;;5.30;4.40;;;;;;;10.23;100.00;99338.63;108948;1254;75042;-54
2023/04/14 10:06:31;;;;;;;5.20;4.80;;;;;;;10.25;100.00;99339.44;109085;1253;65225;-53
2023/04/14 10:08:59;;;;;;;7.40;6.10;;;;;;;10.27;100.00;99339.86;109028;1254;72787;-53
2023/04/14 10:11:29;;;;;;;5.10;4.70;;;;;;;10.29;100.00;99342.98;109081;1254;61455;-53
2023/04/14 10:14:00;;;;;;;6.20;5.60;;;;;;;10.29;100.00;99345.53;107068;1253;61021;-54
2023/04/14 10:16:28;;;;;;;5.30;4.70;;;;;;;10.30;100.00;99348.50;108968;1254;74189;-53
2023/04/14 10:18:57;;;;;;;6.30;5.80;;;;;;;10.31;100.00;99355.94;108998;1254;68057;-53
2023/04/14 10:21:26;;;;;;;5.50;5.10;;;;;;;10.33;100.00;99354.98;106744;1258;71434;-53
2023/04/14 10:23:56;;;;;;;4.80;4.40;;;;;;;10.33;100.00;99353.70;105611;1258;62003;-52
2023/04/14 10:26:25;;;;;;;4.90;4.50;;;;;;;10.31;100.00;99355.07;106981;1253;60562;-52
2023/04/14 10:28:54;;;;;;;6.10;5.10;;;;;;;10.31;100.00;99349.52;105301;1258;73146;-53
2023/04/14 10:31:37;;;;;;;5.70;5.20;;;;;;;10.32;100.00;99352.48;109163;1253;65470;-54
2023/04/14 10:34:08;;;;;;;6.30;5.70;;;;;;;10.36;100.00;99353.39;109033;1254;71947;-53
2023/04/14 10:36:36;;;;;;;7.60;5.80;;;;;;;10.38;100.00;99355.23;109029;1253;61024;-54
2023/04/14 10:39:04;;;;;;;7.30;5.40;;;;;;;10.40;100.00;99352.23;109020;1254;60435;-53
2023/04/14 10:41:46;;;;;;;4.90;4.50;;;;;;;10.42;100.00;99349.27;109092;1254;74806;-54
2023/04/14 10:44:24;;;;;;;6.00;4.00;;;;;;;10.46;100.00;99351.04;109043;1254;67456;-53
2023/04/14 10:46:52;;;;;;;4.30;3.90;;;;;;;10.48;100.00;99354.52;105466;1257;72958;-53
2023/04/14 10:49:34;;;;;;;4.40;3.90;;;;;;;10.48;100.00;99356.13;106101;1253;60517;-50
2023/04/14 10:52:15;;;;;;;6.10;3.70;;;;;;;10.45;100.00;99363.65;105527;1254;60626;-51
2023/04/14 10:54:54;;;;;;;8.70;4.80;;;;;;;10.43;100.00;99364.64;105961;1258;75004;-51
2023/04/14 10:57:23;;;;;;;6.50;4.60;;;;;;;10.44;100.00;99372.14;105585;1254;67721;-50
2023/04/14 10:59:53;;;;;;;5.80;4.10;;;;;;;10.42;100.00;99371.52;105767;1256;71693;-49
2023/04/14 11:02:28;;;;;;;7.90;4.60;;;;;;;10.39;100.00;99376.16;105559;1254;62240;-53
2023/04/14 11:05:07;;;;;;;4.70;4.30;;;;;;;10.36;100.00;99381.39;107376;1254;60428;-52
2023/04/14 11:07:39;;;;;;;4.60;4.20;;;;;;;10.31;100.00;99385.20;105619;1256;74218;-50
2023/04/14 11:10:23;;;;;;;5.10;3.80;;;;;;;10.29;100.00;99387.65;105458;1254;65373;-52
2023/04/14 11:13:10;;;;;;;4.70;3.30;;;;;;;10.29;100.00;99389.27;105747;1257;72922;-52
2023/04/14 11:16:11;;;;;;;4.70;4.40;;;;;;;10.31;100.00;99390.56;105391;1254;61207;-52
2023/04/14 11:18:41;;;;;;;4.70;4.30;;;;;;;10.32;100.00;99396.80;105117;1260;61775;-50
2023/04/14 11:21:14;;;;;;;6.60;4.30;;;;;;;10.33;100.00;99397.85;105433;1256;73621;-52
2023/04/14 11:23:46;;;;;;;6.60;5.70;;;;;;;10.32;100.00;99400.92;107483;1256;67313;-52
2023/04/14 11:26:23;;;;;;;5.70;5.20;;;;;;;10.30;100.00;99400.65;105536;1256;73344;-51
2023/04/14 11:28:55;;;;;;;4.90;4.60;;;;;;;10.31;100.00;99399.17;105425;1253;63240;-52
2023/04/14 11:31:26;;;;;;;5.50;4.00;;;;;;;10.36;100.00;99404.50;105561;1254;61323;-51
2023/04/14 11:33:55;;;;;;;7.70;4.80;;;;;;;10.42;100.00;99407.55;105945;1254;73494;-53
2023/04/14 11:36:23;;;;;;;8.00;3.70;;;;;;;10.46;100.00;99407.16;106427;1256;65711;-53
2023/04/14 11:38:51;;;;;;;5.10;4.60;;;;;;;10.48;100.00;99401.66;106333;1254;73829;-52
2023/04/14 11:41:20;;;;;;;4.30;3.90;;;;;;;10.51;100.00;99402.09;105738;1256;61031;-51
2023/04/14 11:43:49;;;;;;;7.20;4.70;;;;;;;10.52;100.00;99402.90;105956;1254;60404;-53